createdAt,value
2022-09-12T00:02:22.426Z,16.16
2022-09-12T00:05:28.215Z,16.10
2022-09-12T00:08:30.749Z,16.07
2022-09-12T00:11:33.477Z,16.00
2022-09-12T00:14:36.643Z,15.90
2022-09-12T00:17:40.108Z,15.85
2022-09-12T00:20:44.609Z,15.74
2022-09-12T00:23:48.246Z,15.76
2022-09-12T00:26:50.846Z,15.81
2022-09-12T00:29:53.611Z,15.76
2022-09-12T00:32:56.171Z,15.73
2022-09-12T00:36:00.360Z,15.79
2022-09-12T00:39:03.589Z,15.84
2022-09-12T00:42:07.044Z,15.90
2022-09-12T00:45:22.253Z,15.91
2022-09-12T00:48:32.871Z,15.92
2022-09-12T00:51:38.655Z,15.89
2022-09-12T00:54:45.178Z,15.75
2022-09-12T00:57:54.630Z,15.77
2022-09-12T01:00:58.499Z,15.75
2022-09-12T01:04:01.969Z,15.76
2022-09-12T01:07:07.467Z,15.76
2022-09-12T01:10:11.468Z,15.74
2022-09-12T01:13:14.348Z,15.59
2022-09-12T01:16:17.544Z,15.52
2022-09-12T01:19:41.745Z,15.57
2022-09-12T01:23:12.996Z,15.61
2022-09-12T01:26:49.157Z,15.47
2022-09-12T01:30:16.562Z,15.16
2022-09-12T01:33:44.436Z,15.22
2022-09-12T01:36:59.215Z,15.31
2022-09-12T01:40:10.428Z,15.37
2022-09-12T01:43:24.989Z,15.34
2022-09-12T01:46:36.786Z,15.39
2022-09-12T01:49:47.353Z,15.39
2022-09-12T01:52:54.694Z,15.30
2022-09-12T01:56:01.215Z,15.22
2022-09-12T01:59:08.746Z,15.28
2022-09-12T02:02:16.608Z,15.31
2022-09-12T02:05:26.507Z,15.25
2022-09-12T02:08:33.724Z,15.27
2022-09-12T02:11:41.197Z,15.35
2022-09-12T02:14:49.590Z,15.25
2022-09-12T02:17:56.164Z,15.11
2022-09-12T02:21:02.572Z,15.17
2022-09-12T02:24:08.576Z,15.02
2022-09-12T02:27:15.136Z,14.88
2022-09-12T02:30:19.755Z,14.96
2022-09-12T02:33:28.255Z,15.03
2022-09-12T02:36:46.375Z,14.98
2022-09-12T02:39:49.076Z,15.05
2022-09-12T02:42:51.838Z,15.07
2022-09-12T02:45:54.490Z,15.10
2022-09-12T02:48:58.349Z,15.07
2022-09-12T02:52:03.493Z,15.04
2022-09-12T02:55:08.162Z,15.07
2022-09-12T02:58:16.012Z,15.01
2022-09-12T03:01:30.256Z,15.00
2022-09-12T03:04:48.349Z,15.00
2022-09-12T03:08:42.829Z,14.93
2022-09-12T03:12:03.792Z,14.92
2022-09-12T03:15:16.442Z,14.89
2022-09-12T03:18:32.602Z,14.72
2022-09-12T03:21:43.454Z,14.71
2022-09-12T03:24:54.832Z,14.74
2022-09-12T03:28:06.117Z,14.48
2022-09-12T03:31:16.476Z,14.50
2022-09-12T03:34:19.549Z,14.60
2022-09-12T03:37:22.096Z,14.68
2022-09-12T03:40:24.766Z,14.61
2022-09-12T03:43:31.849Z,14.52
2022-09-12T03:46:34.616Z,14.50
2022-09-12T03:49:37.215Z,14.44
2022-09-12T03:52:39.973Z,14.33
2022-09-12T03:55:42.543Z,14.34
2022-09-12T03:58:47.094Z,14.41
2022-09-12T04:01:49.720Z,14.53
2022-09-12T04:04:53.109Z,14.56
2022-09-12T04:07:55.705Z,14.26
2022-09-12T04:11:04.090Z,14.31
2022-09-12T04:14:08.011Z,14.38
2022-09-12T04:17:10.898Z,14.42
2022-09-12T04:20:13.483Z,14.40
2022-09-12T04:23:16.199Z,14.29
2022-09-12T04:26:20.852Z,14.25
2022-09-12T04:29:24.979Z,14.26
2022-09-12T04:32:27.645Z,14.29
2022-09-12T04:35:30.274Z,14.36
2022-09-12T04:38:33.387Z,14.34
2022-09-12T04:41:37.563Z,13.80
2022-09-12T04:44:41.504Z,13.39
2022-09-12T04:47:44.057Z,13.16
2022-09-12T04:50:46.638Z,12.96
2022-09-12T04:53:50.838Z,12.85
2022-09-12T04:56:54.825Z,12.74
2022-09-12T05:00:01.870Z,12.66
2022-09-12T05:03:08.456Z,12.57
2022-09-12T05:06:13.604Z,12.49
2022-09-12T05:09:16.682Z,12.39
2022-09-12T05:12:19.355Z,12.36
2022-09-12T05:15:24.550Z,12.42
2022-09-12T05:18:33.055Z,12.45
2022-09-12T05:21:35.869Z,12.45
2022-09-12T05:24:39.083Z,12.50
2022-09-12T05:27:41.812Z,12.55
2022-09-12T05:30:45.977Z,12.59
2022-09-12T05:33:50.951Z,12.57
2022-09-12T05:36:53.507Z,12.59
2022-09-12T05:39:56.221Z,12.65
2022-09-12T05:42:58.787Z,12.75
2022-09-12T05:46:03.848Z,12.84
2022-09-12T05:49:07.710Z,12.89
2022-09-12T05:52:10.398Z,12.98
2022-09-12T05:55:13.391Z,13.10
2022-09-12T05:58:16.133Z,13.28
2022-09-12T06:01:21.161Z,13.46
2022-09-12T06:04:24.913Z,13.68
2022-09-12T06:07:27.472Z,14.06
2022-09-12T06:10:30.133Z,14.59
2022-09-12T06:13:33.096Z,15.15
2022-09-12T06:16:37.683Z,15.74
2022-09-12T06:19:40.443Z,16.23
2022-09-12T06:22:43.480Z,16.56
2022-09-12T06:25:48.519Z,17.28
2022-09-12T06:28:51.509Z,17.72
2022-09-12T06:31:55.851Z,18.10
2022-09-12T06:34:58.481Z,18.41
2022-09-12T06:38:01.901Z,18.13
2022-09-12T06:41:05.503Z,18.64
2022-09-12T06:44:08.256Z,18.92
2022-09-12T06:47:12.882Z,19.18
2022-09-12T06:50:15.780Z,19.36
2022-09-12T06:53:18.502Z,19.51
2022-09-12T06:56:23.116Z,19.80
2022-09-12T06:59:25.797Z,20.13
2022-09-12T07:02:29.904Z,20.01
2022-09-12T07:05:34.893Z,20.32
2022-09-12T07:08:38.368Z,20.81
2022-09-12T07:11:43.050Z,21.07
2022-09-12T07:14:45.755Z,21.37
2022-09-12T07:17:49.655Z,21.67
2022-09-12T07:20:52.319Z,21.91
2022-09-12T07:23:57.769Z,22.22
2022-09-12T07:27:00.457Z,21.81
2022-09-12T07:30:03.088Z,21.86
2022-09-12T07:33:06.994Z,22.14
2022-09-12T07:36:13.025Z,22.48
2022-09-12T07:39:15.791Z,22.85
2022-09-12T07:42:18.534Z,23.15
2022-09-12T07:45:21.096Z,23.31
2022-09-12T07:48:25.362Z,22.70
2022-09-12T07:51:29.484Z,22.97
2022-09-12T07:54:33.364Z,23.24
2022-09-12T07:57:36.083Z,22.96
2022-09-12T08:00:38.657Z,22.56
2022-09-12T08:03:44.202Z,22.27
2022-09-12T08:06:46.771Z,22.91
2022-09-12T08:09:49.451Z,23.08
2022-09-12T08:12:52.163Z,23.48
2022-09-12T08:15:59.792Z,23.73
2022-09-12T08:19:04.452Z,23.76
2022-09-12T08:22:07.229Z,23.86
2022-09-12T08:25:10.992Z,23.61
2022-09-12T08:28:13.721Z,23.39
2022-09-12T08:31:18.468Z,23.37
2022-09-12T08:34:22.528Z,23.42
2022-09-12T08:37:25.409Z,23.28
2022-09-12T08:40:28.132Z,22.93
2022-09-12T08:43:51.048Z,23.13
2022-09-12T08:47:12.481Z,22.81
2022-09-12T08:50:20.025Z,22.89
2022-09-12T08:53:27.200Z,22.48
2022-09-12T08:56:37.301Z,22.81
2022-09-12T08:59:42.785Z,22.48
2022-09-12T09:03:10.393Z,22.41
2022-09-12T09:06:27.933Z,22.60
2022-09-12T09:09:43.584Z,22.12
2022-09-12T09:12:55.710Z,22.60
2022-09-12T09:16:07.133Z,22.99
2022-09-12T09:19:17.534Z,23.42
2022-09-12T09:22:33.351Z,23.80
2022-09-12T09:25:44.032Z,23.90
2022-09-12T09:28:51.293Z,23.82
2022-09-12T09:31:57.806Z,24.30
2022-09-12T09:35:00.627Z,24.08
2022-09-12T09:38:15.445Z,24.64
2022-09-12T09:41:38.726Z,24.80
2022-09-12T09:44:41.935Z,24.73
2022-09-12T09:47:47.025Z,25.20
2022-09-12T09:50:51.169Z,25.56
2022-09-12T09:54:01.010Z,25.81
2022-09-12T09:57:03.844Z,25.73
2022-09-12T10:00:25.969Z,26.01
2022-09-12T10:03:34.397Z,26.59
2022-09-12T10:06:39.029Z,26.59
2022-09-12T10:09:43.468Z,26.96
2022-09-12T10:12:46.387Z,26.78
2022-09-12T10:15:59.223Z,26.78
2022-09-12T10:19:03.720Z,26.89
2022-09-12T10:22:07.856Z,26.96
2022-09-12T10:25:16.643Z,27.19
2022-09-12T10:28:25.724Z,27.16
2022-09-12T10:31:30.962Z,27.27
2022-09-12T10:34:37.488Z,27.14
2022-09-12T10:37:41.752Z,27.37
2022-09-12T10:40:45.930Z,27.22
2022-09-12T10:43:48.915Z,26.96
2022-09-12T10:46:51.516Z,25.77
2022-09-12T10:49:54.224Z,24.13
2022-09-12T10:53:13.381Z,23.66
2022-09-12T10:56:20.577Z,23.88
2022-09-12T10:59:32.263Z,24.49
2022-09-12T11:02:50.177Z,25.18
2022-09-12T11:05:57.183Z,25.64
2022-09-12T11:09:07.007Z,26.32
2022-09-12T11:12:21.590Z,26.75
2022-09-12T11:15:41.129Z,25.82
2022-09-12T11:19:04.886Z,25.85
2022-09-12T11:22:29.907Z,26.38
2022-09-12T11:25:41.852Z,25.96
2022-09-12T11:28:54.685Z,25.23
2022-09-12T11:32:14.425Z,25.38
2022-09-12T11:35:25.959Z,25.55
2022-09-12T11:38:47.117Z,26.02
2022-09-12T11:41:57.142Z,25.86
2022-09-12T11:45:06.724Z,25.83
2022-09-12T11:48:16.708Z,26.05
2022-09-12T11:51:21.920Z,26.39
2022-09-12T11:54:29.962Z,26.01
2022-09-12T11:57:40.992Z,26.05
2022-09-12T12:00:48.445Z,26.10
2022-09-12T12:03:52.696Z,26.03
2022-09-12T12:07:04.247Z,26.15
2022-09-12T12:10:09.228Z,25.68
2022-09-12T12:13:20.491Z,25.45
2022-09-12T12:16:28.313Z,24.93
2022-09-12T12:19:35.741Z,24.93
2022-09-12T12:22:38.716Z,25.09
2022-09-12T12:25:52.932Z,25.18
2022-09-12T12:29:01.931Z,25.13
2022-09-12T12:32:23.220Z,24.65
2022-09-12T12:35:40.547Z,24.34
2022-09-12T12:38:43.212Z,24.17
2022-09-12T12:41:46.844Z,24.30
2022-09-12T12:44:51.530Z,24.10
2022-09-12T12:47:58.516Z,23.98
2022-09-12T12:51:23.553Z,24.19
2022-09-12T12:54:48.691Z,24.45
2022-09-12T12:57:52.698Z,24.38
2022-09-12T13:01:08.631Z,24.71
2022-09-12T13:04:18.797Z,24.86
2022-09-12T13:07:31.165Z,24.98
2022-09-12T13:10:34.050Z,24.87
2022-09-12T13:13:39.842Z,24.20
2022-09-12T13:16:57.555Z,24.57
2022-09-12T13:20:28.305Z,24.50
2022-09-12T13:23:33.868Z,24.21
2022-09-12T13:26:42.733Z,23.99
2022-09-12T13:29:45.492Z,24.16
2022-09-12T13:32:48.322Z,24.26
2022-09-12T13:36:15.643Z,24.01
2022-09-12T13:39:24.775Z,23.81
2022-09-12T13:42:41.914Z,23.94
2022-09-12T13:45:46.807Z,23.91
2022-09-12T13:48:49.757Z,23.88
2022-09-12T13:52:05.931Z,23.78
2022-09-12T13:55:29.491Z,23.91
2022-09-12T13:58:34.504Z,23.66
2022-09-12T14:01:42.280Z,23.65
2022-09-12T14:05:05.712Z,23.75
2022-09-12T14:08:14.950Z,23.60
2022-09-12T14:11:26.318Z,23.72
2022-09-12T14:14:33.997Z,23.66
2022-09-12T14:17:39.374Z,23.69
2022-09-12T14:20:42.905Z,23.69
2022-09-12T14:23:49.361Z,23.27
2022-09-12T14:26:54.281Z,23.23
2022-09-12T14:30:03.325Z,23.20
2022-09-12T14:33:17.793Z,23.11
2022-09-12T14:36:25.454Z,22.84
2022-09-12T14:39:34.397Z,23.00
2022-09-12T14:42:37.353Z,23.05
2022-09-12T14:45:40.101Z,23.04
2022-09-12T14:48:47.816Z,23.12
2022-09-12T14:51:57.149Z,23.10
2022-09-12T14:55:03.893Z,23.06
2022-09-12T14:58:16.990Z,23.00
2022-09-12T15:01:25.467Z,22.91
2022-09-12T15:04:47.931Z,22.83
2022-09-12T15:07:56.199Z,22.79
2022-09-12T15:11:00.679Z,22.72
2022-09-12T15:14:08.675Z,22.72
2022-09-12T15:17:11.348Z,22.67
2022-09-12T15:20:15.411Z,22.67
2022-09-12T15:23:40.947Z,22.70
2022-09-12T15:26:44.835Z,22.64
2022-09-12T15:29:47.586Z,22.65
2022-09-12T15:32:50.250Z,22.56
2022-09-12T15:35:53.953Z,22.53
2022-09-12T15:38:57.160Z,22.47
2022-09-12T15:42:01.295Z,22.44
2022-09-12T15:45:17.801Z,22.37
2022-09-12T15:48:21.280Z,22.27
2022-09-12T15:51:23.974Z,22.24
2022-09-12T15:54:26.638Z,22.21
2022-09-12T15:57:30.581Z,22.18
2022-09-12T16:00:33.722Z,22.13
2022-09-12T16:03:36.369Z,22.07
2022-09-12T16:06:39.142Z,22.05
2022-09-12T16:09:41.860Z,21.99
2022-09-12T16:12:46.463Z,21.91
2022-09-12T16:15:49.273Z,21.85
2022-09-12T16:18:51.920Z,21.86
2022-09-12T16:21:54.733Z,21.78
2022-09-12T16:24:57.333Z,21.77
2022-09-12T16:28:01.863Z,21.72
2022-09-12T16:31:06.388Z,21.68
2022-09-12T16:34:09.119Z,21.67
2022-09-12T16:37:11.722Z,21.59
2022-09-12T16:40:15.451Z,21.55
2022-09-12T16:43:20.379Z,21.49
2022-09-12T16:46:25.164Z,21.43
2022-09-12T16:49:27.762Z,21.33
2022-09-12T16:52:31.276Z,21.25
2022-09-12T16:55:33.907Z,21.14
2022-09-12T16:58:42.059Z,21.03
2022-09-12T17:01:45.556Z,20.92
2022-09-12T17:04:48.953Z,20.85
2022-09-12T17:07:51.869Z,20.77
2022-09-12T17:10:54.677Z,20.67
2022-09-12T17:14:05.381Z,20.49
2022-09-12T17:17:08.724Z,20.43
2022-09-12T17:20:11.818Z,20.26
2022-09-12T17:23:14.451Z,20.24
2022-09-12T17:26:17.549Z,20.17
2022-09-12T17:29:21.923Z,20.11
2022-09-12T17:32:24.551Z,19.91
2022-09-12T17:35:27.160Z,19.84
2022-09-12T17:38:32.645Z,19.82
2022-09-12T17:41:35.184Z,19.78
2022-09-12T17:44:39.389Z,19.69
2022-09-12T17:47:42.868Z,19.58
2022-09-12T17:50:45.639Z,19.48
2022-09-12T17:53:48.323Z,19.21
2022-09-12T17:56:52.458Z,19.10
2022-09-12T17:59:56.526Z,19.07
2022-09-12T18:02:58.287Z,19.05
2022-09-12T18:06:01.114Z,19.00
2022-09-12T18:09:06.390Z,18.91
2022-09-12T18:12:10.055Z,18.83
2022-09-12T18:15:14.288Z,18.74
2022-09-12T18:18:16.858Z,18.66
2022-09-12T18:21:19.917Z,18.52
2022-09-12T18:24:22.890Z,18.48
2022-09-12T18:27:25.693Z,18.43
2022-09-12T18:30:30.919Z,18.36
2022-09-12T18:33:35.081Z,18.30
2022-09-12T18:36:37.757Z,18.16
2022-09-12T18:39:40.384Z,18.05
2022-09-12T18:42:43.015Z,17.96
2022-09-12T18:45:47.504Z,17.88
2022-09-12T18:48:50.415Z,17.78
2022-09-12T18:51:52.997Z,17.64
2022-09-12T18:54:55.695Z,17.60
2022-09-12T18:57:58.444Z,17.46
2022-09-12T19:01:09.733Z,17.34
2022-09-12T19:04:15.957Z,17.25
2022-09-12T19:07:18.845Z,17.26
2022-09-12T19:10:21.445Z,17.20
2022-09-12T19:13:24.242Z,17.06
2022-09-12T19:16:29.565Z,16.99
2022-09-12T19:19:32.344Z,16.92
2022-09-12T19:22:34.909Z,16.89
2022-09-12T19:25:37.661Z,16.74
2022-09-12T19:28:40.831Z,16.72
2022-09-12T19:31:44.969Z,16.64
2022-09-12T19:34:47.959Z,16.55
2022-09-12T19:37:50.536Z,16.50
2022-09-12T19:40:57.817Z,16.44
2022-09-12T19:44:00.699Z,16.43
2022-09-12T19:47:04.926Z,16.40
2022-09-12T19:50:08.471Z,16.34
2022-09-12T19:53:11.192Z,16.33
2022-09-12T19:56:15.091Z,16.22
2022-09-12T19:59:17.767Z,16.04
2022-09-12T20:02:21.762Z,15.97
2022-09-12T20:05:24.481Z,16.27
2022-09-12T20:08:27.040Z,16.77
2022-09-12T20:11:29.719Z,17.06
2022-09-12T20:14:32.276Z,17.17
2022-09-12T20:17:36.586Z,17.22
2022-09-12T20:20:39.158Z,17.16
2022-09-12T20:23:41.941Z,17.13
2022-09-12T20:26:44.832Z,16.90
2022-09-12T20:29:47.587Z,16.78
2022-09-12T20:32:51.637Z,16.70
2022-09-12T20:35:54.313Z,16.47
2022-09-12T20:38:59.880Z,16.40
2022-09-12T20:42:02.712Z,16.35
2022-09-12T20:45:06.446Z,16.38
2022-09-12T20:48:10.893Z,16.61
2022-09-12T20:51:14.153Z,16.68
2022-09-12T20:54:17.159Z,16.77
2022-09-12T20:57:19.769Z,16.80
2022-09-12T21:00:22.510Z,16.78
2022-09-12T21:03:26.472Z,16.71
2022-09-12T21:06:29.662Z,16.77
2022-09-12T21:09:32.244Z,16.87
2022-09-12T21:12:35.039Z,16.84
2022-09-12T21:15:37.730Z,16.83
2022-09-12T21:18:42.418Z,16.76
2022-09-12T21:21:45.139Z,16.54
2022-09-12T21:24:47.877Z,16.56
2022-09-12T21:27:50.421Z,16.56
2022-09-12T21:30:53.616Z,16.42
2022-09-12T21:33:57.579Z,16.27
2022-09-12T21:37:00.318Z,16.33
2022-09-12T21:40:03.437Z,16.49
2022-09-12T21:43:11.863Z,16.42
2022-09-12T21:46:15.571Z,16.29
2022-09-12T21:49:19.645Z,16.20
2022-09-12T21:52:22.342Z,16.08
2022-09-12T21:55:27.105Z,16.01
2022-09-12T21:58:42.933Z,16.03
2022-09-12T22:01:45.598Z,16.10
2022-09-12T22:04:50.275Z,16.06
2022-09-12T22:07:53.136Z,16.03
2022-09-12T22:11:00.747Z,16.00
2022-09-12T22:14:03.379Z,15.89
2022-09-12T22:17:06.423Z,15.96
2022-09-12T22:20:10.751Z,15.96
2022-09-12T22:23:31.832Z,16.03
2022-09-12T22:26:43.214Z,16.00
2022-09-12T22:29:46.212Z,15.97
2022-09-12T22:32:49.672Z,16.00
2022-09-12T22:35:53.709Z,15.98
2022-09-12T22:38:57.239Z,16.20
2022-09-12T22:41:59.944Z,16.32
2022-09-12T22:45:02.696Z,16.34
2022-09-12T22:48:09.020Z,16.33
2022-09-12T22:51:14.458Z,16.34
2022-09-12T22:54:17.086Z,16.27
2022-09-12T22:57:19.749Z,16.18
2022-09-12T23:00:23.549Z,16.26
2022-09-12T23:03:26.258Z,16.26
2022-09-12T23:06:30.966Z,16.07
2022-09-12T23:09:35.582Z,16.06
2022-09-12T23:12:38.414Z,16.11
2022-09-12T23:15:41.422Z,16.08
2022-09-12T23:18:44.114Z,16.13
2022-09-12T23:21:48.398Z,16.19
2022-09-12T23:24:50.992Z,16.25
2022-09-12T23:27:54.068Z,16.32
2022-09-12T23:30:56.669Z,16.30
2022-09-12T23:34:01.959Z,16.27
2022-09-12T23:37:05.876Z,16.20
2022-09-12T23:40:09.907Z,16.20
2022-09-12T23:43:12.478Z,16.21
2022-09-12T23:46:17.443Z,16.16
2022-09-12T23:49:20.165Z,16.06
2022-09-12T23:52:24.085Z,15.96
2022-09-12T23:55:26.827Z,15.84
2022-09-12T23:58:30.141Z,15.82
